createdAt,value
2023-01-17T00:02:28.095Z,3.9
2023-01-17T00:12:28.470Z,3.8
2023-01-17T00:22:29.527Z,3.7
2023-01-17T00:32:29.657Z,3.7
2023-01-17T00:42:29.853Z,3.5
2023-01-17T01:02:31.232Z,3.1
2023-01-17T01:22:31.900Z,3.4
2023-01-17T01:32:32.014Z,3.5
2023-01-17T01:42:32.409Z,3.5
2023-01-17T02:02:34.263Z,3.4
2023-01-17T02:12:34.694Z,3.5
2023-01-17T02:22:34.975Z,3.4
2023-01-17T02:32:35.303Z,2.8
2023-01-17T02:42:35.578Z,2.4
2023-01-17T02:52:36.400Z,2.4
2023-01-17T03:02:37.075Z,2.2
2023-01-17T03:12:37.963Z,2
2023-01-17T03:22:38.650Z,1.6
2023-01-17T03:32:39.000Z,1.3
2023-01-17T03:42:39.202Z,1.3
2023-01-17T03:52:39.532Z,1.4
2023-01-17T04:02:39.681Z,1.4
2023-01-17T04:12:39.879Z,1.4
2023-01-17T04:22:40.380Z,1.4
2023-01-17T04:32:40.618Z,1.5
2023-01-17T04:42:41.333Z,1.6
2023-01-17T04:52:41.712Z,1.7
2023-01-17T05:02:42.385Z,1.7
2023-01-17T05:12:42.980Z,1.7
2023-01-17T05:22:43.407Z,1.7
2023-01-17T05:32:43.595Z,1.7
2023-01-17T05:42:44.399Z,1.7
2023-01-17T05:52:44.737Z,1.7
2023-01-17T06:02:44.891Z,1.7
2023-01-17T06:12:45.689Z,1.7
2023-01-17T06:22:46.361Z,1.7
2023-01-17T06:32:47.072Z,1.7
2023-01-17T06:42:47.879Z,1.6
2023-01-17T06:52:48.169Z,1.6
2023-01-17T07:02:48.963Z,1.5
2023-01-17T07:12:49.403Z,1.4
2023-01-17T07:22:50.050Z,1.3
2023-01-17T07:32:51.032Z,1.3
2023-01-17T07:42:51.342Z,1.4
2023-01-17T07:52:51.573Z,1.4
2023-01-17T08:02:52.319Z,1.4
2023-01-17T08:22:52.923Z,1.5
2023-01-17T08:32:53.947Z,1.5
2023-01-17T08:42:54.833Z,1.4
2023-01-17T08:52:55.645Z,1.3
2023-01-17T09:02:56.292Z,1.4
2023-01-17T09:22:57.234Z,1.7
2023-01-17T09:32:58.046Z,1.8
2023-01-17T09:42:58.960Z,1.9
2023-01-17T09:52:59.764Z,2.1
2023-01-17T10:03:00.247Z,2.2
2023-01-17T10:13:00.341Z,2.2
2023-01-17T10:23:00.494Z,2.3
2023-01-17T10:33:01.111Z,2.8
2023-01-17T10:43:01.434Z,2.8
2023-01-17T10:53:01.569Z,2.8
2023-01-17T11:03:02.620Z,2.5
2023-01-17T11:13:03.374Z,3.2
2023-01-17T11:23:03.683Z,3.9
2023-01-17T11:33:03.865Z,4.6
2023-01-17T11:43:04.772Z,3.9
2023-01-17T11:53:05.756Z,3.6
2023-01-17T12:03:06.350Z,3.9
2023-01-17T12:13:06.923Z,3.9
2023-01-17T12:23:07.377Z,4.4
2023-01-17T12:33:08.153Z,4.5
2023-01-17T12:43:09.140Z,4
2023-01-17T13:03:10.217Z,3.8
2023-01-17T13:13:10.589Z,3.7
2023-01-17T13:23:11.688Z,3.9
2023-01-17T13:33:12.053Z,4.2
2023-01-17T13:43:12.492Z,4.9
2023-01-17T13:53:13.452Z,5.2
2023-01-17T14:03:14.453Z,5.1
2023-01-17T14:13:15.328Z,4.7
2023-01-17T14:23:15.760Z,4.3
2023-01-17T14:43:16.439Z,3.9
2023-01-17T14:53:17.517Z,3.7
2023-01-17T15:03:17.941Z,3.6
2023-01-17T15:13:20.416Z,3.5
2023-01-17T15:23:18.675Z,3.3
2023-01-17T15:33:19.695Z,3
2023-01-17T15:43:20.239Z,2.8
2023-01-17T15:53:20.837Z,2.6
2023-01-17T16:03:21.550Z,2.4
2023-01-17T16:13:21.920Z,2.1
2023-01-17T16:23:22.388Z,1.6
2023-01-17T16:33:23.082Z,1.4
2023-01-17T16:53:24.771Z,0.9
2023-01-17T17:33:27.607Z,0
2023-01-17T17:43:27.981Z,-0.3
2023-01-17T18:23:30.655Z,-0.9
2023-01-17T18:33:31.424Z,-1
2023-01-17T18:43:31.792Z,-1
2023-01-17T18:53:32.846Z,-1.1
2023-01-17T19:03:33.169Z,-1.2
2023-01-17T19:13:33.885Z,-1.2
2023-01-17T19:23:34.197Z,-1.2
2023-01-17T19:33:34.316Z,-1.2
2023-01-17T19:43:34.974Z,-1.3
2023-01-17T19:53:35.775Z,-1.4
2023-01-17T20:23:36.849Z,-1.6
2023-01-17T20:33:37.408Z,-1.6
2023-01-17T20:53:38.262Z,-1.8
2023-01-17T21:03:38.365Z,-1.8
2023-01-17T21:13:38.678Z,-1.9
2023-01-17T21:23:39.393Z,-2
2023-01-17T21:33:39.762Z,-2
2023-01-17T21:43:40.766Z,-2.2
2023-01-17T21:53:41.355Z,-2.3
2023-01-17T22:03:42.004Z,-2.3
2023-01-17T22:13:42.234Z,-2.4
2023-01-17T22:23:42.714Z,-2.4
2023-01-17T22:43:43.724Z,-2.5
2023-01-17T22:53:44.346Z,-2.6
2023-01-17T22:54:06.266Z,-2.6
2023-01-17T23:03:50.461Z,-2.6
2023-01-17T23:13:50.919Z,-2.8
2023-01-17T23:23:51.691Z,-2.9
2023-01-17T23:33:51.819Z,-2.8
2023-01-17T23:43:52.239Z,-2.9
2023-01-17T23:53:52.743Z,-3
